Latest Weather Observations for Katanning RS

IDW60801

Issued at 7:13 pm WST Wednesday 19 September 2018 (issued every 10 minutes, with the page automatically refreshed every 10 minutes)

About weather observations | Map of weather stations | Latest weather observations for WA | Other Formats
Station Details ID: 010916 Name: KATANNING Lat: -33.69 Lon: 117.61 Height: 320.0 m
Data from the previous 72 hours. | See also: Recent months at Katanning RS
Date/Time
WST
Temp
°C
App
Temp
°C
Dew
Point
°C
Rel
Hum
%
Delta-T
°C
Wind Press
QNH
hPa
Press
MSL
hPa
Rain since
9am
mm
Dir  Spd
km/h
Gust
km/h
Spd
kts
Gust
kts
19/07:00pm 14.1 12.0 6.7 61 3.6 WSW 7 7 4 4 1026.1 1026.1 0.0
19/06:30pm 14.3 12.2 6.6 60 3.8 WSW 7 7 4 4 1025.9 1025.9 0.0
19/06:00pm 14.2 12.1 6.6 60 3.7 SW 7 9 4 5 1025.8 1025.8 0.0
19/05:30pm 15.8 13.9 6.5 54 4.6 SW 6 9 3 5 1025.6 1025.6 0.0
19/05:00pm 16.7 13.7 6.2 50 5.2 SSW 11 13 6 7 1025.3 1025.4 0.0
19/04:30pm 17.3 14.7 5.9 47 5.6 SW 9 13 5 7 1025.2 1025.3 0.0
19/04:00pm 17.5 15.1 5.4 45 5.9 SW 7 13 4 7 1025.2 1025.3 0.0
19/03:30pm 17.7 15.8 7.7 52 5.1 SSW 7 11 4 6 1025.3 1025.4 0.0
19/03:00pm 17.5 15.7 7.8 53 5.0 W 7 11 4 6 1025.4 1025.5 0.0
19/02:30pm 17.1 14.7 7.2 52 5.0 W 9 15 5 8 1025.7 1025.7 0.0
19/02:00pm 16.3 14.9 7.3 55 4.5 WNW 4 13 2 7 1026.0 1026.0 0.0
19/01:30pm 15.9 13.6 7.4 57 4.3 W 9 19 5 10 1026.5 1026.5 0.0
19/01:00pm 15.6 14.4 8.1 61 3.8 WSW 4 15 2 8 1026.9 1026.9 0.0
19/12:30pm 14.6 12.8 7.2 61 3.7 W 6 13 3 7 1027.5 1027.6 0.0
19/12:00pm 14.4 12.7 7.7 64 3.4 SW 6 13 3 7 1027.9 1028.0 0.0
19/11:30am 13.8 11.9 7.6 66 3.1 SW 7 13 4 7 1028.3 1028.4 0.0
19/11:00am 13.0 10.9 6.8 66 3.0 WSW 7 15 4 8 1028.7 1028.8 0.0
19/10:30am 12.1 9.6 6.4 68 2.7 SW 9 17 5 9 1029.1 1029.1 0.0
19/10:00am 11.5 8.9 6.0 69 2.6 WSW 9 15 5 8 1029.4 1029.4 0.0
19/09:30am 10.9 8.3 6.1 72 2.3 SSW 9 17 5 9 1029.5 1029.5 0.0
19/09:00am 10.5 7.5 6.1 74 2.1 SW 11 17 6 9 1029.5 1029.5 0.0
19/08:30am 10.0 7.4 6.3 78 1.8 SW 9 19 5 10 1029.5 1029.5 0.0
19/08:00am 10.0 6.9 5.6 74 2.0 SW 11 15 6 8 1029.2 1029.2 0.0
19/07:30am 10.0 7.7 5.8 75 2.0 WSW 7 11 4 6 1028.9 1028.9 0.0
19/07:00am 9.5 7.2 5.5 76 1.8 WSW 7 15 4 8 1028.6 1028.7 0.0
19/06:30am 8.9 6.6 4.7 75 1.9 WSW 6 7 3 4 1028.3 1028.4 0.0
19/06:00am 9.2 6.3 4.8 74 2.0 SW 9 15 5 8 1028.2 1028.3 0.0
19/05:30am 9.2 6.3 4.8 74 2.0 SW 9 17 5 9 1028.1 1028.2 0.0
19/05:00am 9.1 6.7 5.1 76 1.8 SW 7 11 4 6 1027.9 1028.0 0.0
19/04:30am 9.1 6.2 4.9 75 1.9 SW 9 17 5 9 1027.6 1027.7 0.0
19/04:00am 9.3 6.1 5.1 75 1.9 SW 11 19 6 10 1027.6 1027.7 0.0
19/03:30am 9.3 6.1 5.3 76 1.8 SW 11 20 6 11 1027.8 1027.9 0.0
19/03:00am 9.0 6.3 5.6 79 1.6 WSW 9 13 5 7 1027.7 1027.8 0.0
19/02:30am 8.4 6.0 5.2 80 1.5 WSW 7 11 4 6 1027.8 1027.9 0.0
19/02:00am 8.1 5.6 4.9 80 1.4 WSW 7 11 4 6 1027.9 1028.0 0.0
19/01:30am 8.2 5.3 4.8 79 1.5 WSW 9 13 5 7 1028.0 1028.1 0.0
19/01:00am 8.6 6.2 5.2 79 1.5 WSW 7 11 4 6 1028.0 1028.1 0.0
19/12:30am 9.5 6.6 6.4 81 1.5 SSW 11 17 6 9 1028.3 1028.4 0.0
19/12:00am 9.4 7.4 7.2 86 1.0 SW 7 11 4 6 1028.3 1028.4 0.0
 
Date/Time
WST
Temp
°C
App
Temp
°C
Dew
Point
°C
Rel
Hum
%
Delta-T
°C
Wind Press
QNH
hPa
Press
MSL
hPa
Rain since
9am
mm
Dir  Spd
km/h
Gust
km/h
Spd
kts
Gust
kts
18/11:30pm 9.3 6.6 7.4 88 0.9 SW 11 15 6 8 1028.5 1028.6 0.0
18/11:00pm 9.4 6.7 7.5 88 0.9 SSW 11 17 6 9 1028.6 1028.7 0.0
18/10:30pm 9.1 7.1 6.9 86 1.0 SSW 7 13 4 7 1028.5 1028.6 0.0
18/10:00pm 9.4 6.7 7.2 86 1.0 SSW 11 15 6 8 1028.5 1028.6 0.0
18/09:30pm 9.1 6.2 6.5 84 1.2 SSW 11 17 6 9 1028.6 1028.7 0.0
18/09:00pm 9.4 6.5 6.7 83 1.3 SSW 11 15 6 8 1028.6 1028.7 0.0
18/08:30pm 9.1 6.5 6.0 81 1.4 SSW 9 9 5 5 1028.2 1028.3 0.0
18/08:00pm 9.8 7.6 6.2 78 1.7 SW 7 9 4 5 1027.9 1028.0 0.0
18/07:30pm 11.0 8.5 6.7 75 2.1 SW 9 15 5 8 1027.4 1027.5 0.0
18/07:00pm 12.1 9.4 7.2 72 2.4 SW 11 15 6 8 1027.4 1027.5 0.0
18/06:30pm 13.2 10.9 7.6 69 2.8 SW 9 15 5 8 1027.2 1027.3 0.0
18/06:00pm 14.1 11.1 7.6 65 3.2 SSW 13 17 7 9 1027.1 1027.2 0.0
18/05:30pm 15.5 12.1 7.8 60 3.9 SW 15 22 8 12 1026.6 1026.6 0.0
18/05:00pm 15.5 12.2 8.0 61 3.8 WSW 15 20 8 11 1026.3 1026.3 0.0
18/04:30pm 15.6 12.6 7.6 59 4.1 W 13 24 7 13 1026.1 1026.1 0.0
18/04:00pm 16.4 12.6 7.6 56 4.5 WSW 17 24 9 13 1026.1 1026.1 0.0
18/03:30pm 16.4 12.5 7.3 55 4.6 WSW 17 24 9 13 1026.0 1026.0 0.0
18/03:00pm 16.0 12.6 7.5 57 4.3 WSW 15 24 8 13 1026.0 1026.0 0.0
18/02:30pm 16.3 12.2 7.8 57 4.3 WSW 19 28 10 15 1026.1 1026.1 0.0
18/02:00pm 15.1 11.0 7.9 62 3.6 WSW 19 26 10 14 1026.4 1026.4 0.0
18/01:30pm 15.4 11.5 7.2 58 4.1 SW 17 24 9 13 1026.5 1026.5 0.0
18/01:00pm 14.7 10.7 8.2 65 3.3 WSW 19 28 10 15 1026.9 1026.9 0.0
18/12:30pm 14.9 11.1 7.7 62 3.6 WSW 17 24 9 13 1027.1 1027.2 0.0
18/12:00pm 14.7 10.7 8.9 68 3.0 WSW 20 26 11 14 1027.5 1027.6 0.0
18/11:30am 13.2 10.0 8.5 73 2.4 WSW 15 22 8 12 1027.9 1028.0 0.0
18/11:00am 12.7 9.4 8.2 74 2.2 WSW 15 20 8 11 1028.2 1028.3 0.0
18/10:30am 12.0 9.6 8.5 79 1.8 WSW 11 19 6 10 1028.3 1028.4 0.0
18/10:00am 10.9 8.0 8.1 83 1.4 WSW 13 19 7 10 1028.5 1028.6 0.0
18/09:30am 10.5 7.2 7.9 84 1.3 WSW 15 20 8 11 1028.6 1028.7 0.0
18/09:00am 9.9 6.9 7.5 85 1.2 WSW 13 19 7 10 1028.4 1028.5 0.0
18/08:30am 9.4 5.9 7.3 87 1.0 WSW 15 20 8 11 1028.1 1028.2 0.0
18/08:00am 8.7 6.0 7.2 90 0.7 W 11 17 6 9 1027.9 1028.0 0.0
18/07:30am 7.9 5.0 6.4 90 0.7 WNW 11 15 6 8 1027.6 1027.7 0.0
18/07:00am 7.1 3.6 5.6 90 0.7 W 13 17 7 9 1027.2 1027.3 0.0
18/06:30am 7.0 3.9 5.5 90 0.7 W 11 13 6 7 1027.1 1027.2 0.0
18/06:00am 7.0 3.5 5.5 90 0.7 W 13 17 7 9 1026.7 1026.7 0.0
18/05:30am 7.0 4.3 5.5 90 0.7 W 9 13 5 7 1026.3 1026.3 0.0
18/05:00am 7.2 3.8 5.7 90 0.7 W 13 17 7 9 1026.1 1026.1 0.0
18/04:30am 6.7 3.5 5.0 89 0.8 W 11 15 6 8 1025.8 1025.8 0.0
18/04:00am 6.4 3.1 4.7 89 0.7 W 11 13 6 7 1025.8 1025.8 0.0
18/03:30am 6.3 3.4 4.6 89 0.7 W 9 11 5 6 1025.6 1025.6 0.0
18/03:00am 7.1 4.4 5.4 89 0.8 W 9 13 5 7 1025.3 1025.4 0.0
18/02:30am 7.1 4.4 5.4 89 0.8 W 9 13 5 7 1025.4 1025.5 0.0
18/02:00am 6.9 3.7 5.2 89 0.8 WSW 11 13 6 7 1025.7 1025.7 0.0
18/01:30am 6.6 3.7 4.9 89 0.8 WSW 9 13 5 7 1025.9 1025.9 0.0
18/01:00am 6.0 3.0 4.3 89 0.7 W 9 13 5 7 1025.9 1025.9 0.0
18/12:30am 5.4 2.3 3.6 88 0.8 WNW 9 11 5 6 1025.6 1025.6 0.0
18/12:00am 5.5 2.4 3.5 87 0.8 WNW 9 11 5 6 1025.4 1025.5 0.0
 
Date/Time
WST
Temp
°C
App
Temp
°C
Dew
Point
°C
Rel
Hum
%
Delta-T
°C
Wind Press
QNH
hPa
Press
MSL
hPa
Rain since
9am
mm
Dir  Spd
km/h
Gust
km/h
Spd
kts
Gust
kts
17/11:30pm 6.1 3.6 3.9 86 1.0 W 6 6 3 3 1025.6 1025.6 0.0
17/11:00pm 7.5 5.1 5.3 86 1.0 WSW 7 9 4 5 1025.6 1025.6 0.0
17/10:30pm 7.3 4.9 5.3 87 0.9 WSW 7 11 4 6 1025.8 1025.8 0.0
17/10:00pm 6.3 3.7 4.0 85 1.0 WSW 7 9 4 5 1025.8 1025.8 0.0
17/09:30pm 6.4 3.8 4.1 85 1.0 WSW 7 7 4 4 1025.7 1025.7 0.0
17/09:00pm 6.2 3.5 3.7 84 1.1 W 7 7 4 4 1025.3 1025.4 0.0
17/08:30pm 6.8 4.2 4.1 83 1.2 WSW 7 9 4 5 1025.0 1025.1 0.0
17/08:00pm 7.6 5.3 4.7 82 1.3 SW 6 6 3 3 1024.9 1025.0 0.0
17/07:30pm 8.5 6.1 5.4 81 1.4 SSW 7 11 4 6 1024.4 1024.5 0.0
17/07:00pm 9.2 6.3 6.3 82 1.4 SSW 11 17 6 9 1024.1 1024.1 0.0
17/06:30pm 9.4 6.1 6.5 82 1.4 SSW 13 19 7 10 1023.6 1023.6 0.0
17/06:00pm 10.1 7.0 5.7 74 2.0 SW 11 17 6 9 1023.2 1023.2 0.0
17/05:30pm 10.6 6.8 6.0 73 2.2 SW 15 22 8 12 1022.7 1022.7 0.0
17/05:00pm 11.9 6.9 4.6 61 3.4 SW 20 28 11 15 1022.3 1022.3 0.0
17/04:30pm 12.2 8.0 5.6 64 3.1 SSW 17 26 9 14 1022.0 1022.1 0.0
17/04:00pm 11.9 6.7 5.3 64 3.1 SSW 22 33 12 18 1021.8 1021.9 0.0
17/03:30pm 11.9 6.3 5.3 64 3.1 WSW 24 33 13 18 1021.4 1021.4 0.0
17/03:00pm 13.3 8.4 6.9 65 3.1 WSW 22 32 12 17 1021.2 1021.2 0.0
17/02:30pm 13.1 7.7 4.5 56 4.0 SW 22 39 12 21 1021.1 1021.1 0.0
17/02:00pm 11.6 6.8 5.5 66 2.9 SW 20 28 11 15 1021.2 1021.2 0.0
17/01:30pm 13.7 8.1 5.6 58 3.9 WSW 24 32 13 17 1020.9 1020.9 0.0
17/01:00pm 12.9 8.6 5.3 60 3.6 SW 17 30 9 16 1020.9 1020.9 0.0
17/12:30pm 13.3 7.9 4.5 55 4.1 W 22 33 12 18 1021.0 1021.0 0.0
17/12:00pm 12.2 7.9 5.1 62 3.3 SW 17 32 9 17 1021.4 1021.4 0.0
17/11:30am 11.6 4.9 3.6 58 3.6 SW 28 35 15 19 1021.5 1021.5 0.0
17/11:00am 12.5 6.9 3.5 54 4.1 WSW 22 35 12 19 1021.4 1021.4 0.0
17/10:30am 11.8 5.8 3.6 57 3.7 WSW 24 35 13 19 1021.4 1021.4 0.0
17/10:00am 11.2 6.4 4.4 63 3.1 WSW 19 28 10 15 1021.4 1021.4 0.0
17/09:30am 10.7 5.6 4.2 64 3.0 SW 20 32 11 17 1021.4 1021.4 0.0
17/09:00am 9.8 5.2 3.8 66 2.7 WSW 17 24 9 13 1021.3 1021.3 0.0
17/08:30am 9.3 4.3 3.7 68 2.5 WSW 19 30 10 16 1020.9 1020.9 0.0
17/08:00am 7.9 3.8 4.3 78 1.6 W 15 20 8 11 1020.6 1020.6 0.0
17/07:30am 6.9 2.4 4.4 84 1.1 WSW 17 24 9 13 1020.5 1020.5 0.0
17/07:00am 5.3 1.4 3.6 89 0.7 WSW 13 19 7 10 1020.0 1020.0 0.0
17/06:30am 4.0 0.3 2.4 89 0.7 W 11 13 6 7 1019.8 1019.8 0.0
17/06:00am 3.9 0.6 2.3 89 0.6 W 9 11 5 6 1019.5 1019.5 0.0
17/05:30am 4.2 0.2 2.6 89 0.7 W 13 15 7 8 1019.2 1019.2 0.0
17/05:00am 4.2 0.5 2.4 88 0.7 W 11 13 6 7 1019.1 1019.1 0.0
17/04:30am 4.4 1.1 2.6 88 0.7 W 9 13 5 7 1018.7 1018.7 0.0
17/04:00am 3.9 0.5 2.1 88 0.7 W 9 11 5 6 1018.5 1018.5 0.0
17/03:30am 4.3 1.0 2.3 87 0.8 W 9 11 5 6 1018.2 1018.2 0.0
17/03:00am 4.5 1.6 2.4 86 0.9 WSW 7 9 4 5 1018.1 1018.1 0.0
17/02:30am 5.6 2.5 3.4 86 0.9 WSW 9 11 5 6 1017.9 1017.9 0.0
17/02:00am 6.3 3.3 4.0 85 1.0 SW 9 15 5 8 1018.2 1018.2 0.0
17/01:30am 7.0 3.7 4.7 85 1.0 SW 11 17 6 9 1018.1 1018.1 0.0
17/01:00am 7.8 3.9 5.3 84 1.1 SSW 15 19 8 10 1018.1 1018.1 0.0
17/12:30am 8.2 4.0 5.8 85 1.1 SSW 17 26 9 14 1017.9 1017.9 0.0
17/12:00am 8.6 4.1 6.2 85 1.1 SW 19 32 10 17 1017.6 1017.6 0.0
 
Date/Time
WST
Temp
°C
App
Temp
°C
Dew
Point
°C
Rel
Hum
%
Delta-T
°C
Wind Press
QNH
hPa
Press
MSL
hPa
Rain since
9am
mm
Dir  Spd
km/h
Gust
km/h
Spd
kts
Gust
kts
16/11:30pm 8.7 4.6 6.2 84 1.2 WSW 17 22 9 12 1017.4 1017.4 0.0
16/11:00pm 8.7 6.0 5.8 82 1.3 WSW 9 15 5 8 1017.3 1017.3 0.0
16/10:30pm 8.8 5.7 5.5 80 1.5 SW 11 15 6 8 1017.3 1017.3 0.0
16/10:00pm 9.0 5.6 5.7 80 1.5 SW 13 22 7 12 1017.4 1017.4 0.0
16/09:30pm 8.9 5.2 4.3 73 2.1 SW 13 20 7 11 1017.6 1017.6 0.0
16/09:00pm 8.2 4.9 4.4 77 1.7 W 11 13 6 7 1017.3 1017.3 0.0
16/08:30pm 8.7 5.4 4.3 74 2.0 WSW 11 17 6 9 1017.2 1017.2 0.0
16/08:00pm 9.2 5.5 4.4 72 2.2 WSW 13 15 7 8 1016.8 1016.8 0.0
16/07:30pm 10.6 6.5 4.5 66 2.8 WSW 15 19 8 10 1016.6 1016.6 0.0

Other Formats:

Comma delimited format used in spreadsheet applications
http://www.bom.gov.au/fwo/IDW60801/IDW60801.94641.axf

JavaScript Object Notation format (JSON) in row-major order
http://www.bom.gov.au/fwo/IDW60801/IDW60801.94641.json